createdAt,value
2018-12-14T00:04:08.106Z,71.70
2018-12-14T00:06:41.569Z,71.70
2018-12-14T00:09:22.633Z,71.70
2018-12-14T00:11:54.201Z,71.70
2018-12-14T00:14:41.721Z,71.70
2018-12-14T00:17:13.216Z,71.70
2018-12-14T00:19:57.812Z,71.90
2018-12-14T00:22:29.728Z,71.90
2018-12-14T00:25:14.482Z,71.70
2018-12-14T00:27:45.994Z,71.70
2018-12-14T00:30:33.579Z,71.70
2018-12-14T00:33:05.155Z,71.70
2018-12-14T00:35:53.064Z,71.70
2018-12-14T00:38:24.791Z,71.60
2018-12-14T00:41:06.451Z,71.70
2018-12-14T00:43:37.862Z,71.60
2018-12-14T00:59:19.408Z,71.60
2018-12-14T01:01:50.871Z,71.60
2018-12-14T01:04:39.766Z,71.60
2018-12-14T01:07:11.545Z,71.60
2018-12-14T01:09:52.759Z,71.60
2018-12-14T01:12:24.232Z,71.60
2018-12-14T01:15:05.560Z,71.50
2018-12-14T01:17:37.149Z,71.60
2018-12-14T01:20:18.199Z,71.60
2018-12-14T01:22:49.687Z,72.20
2018-12-14T01:25:30.720Z,71.40
2018-12-14T01:28:02.092Z,71.40
2018-12-14T01:30:43.108Z,71.50
2018-12-14T01:33:14.602Z,71.50
2018-12-14T01:35:55.640Z,71.50
2018-12-14T01:38:27.147Z,71.50
2018-12-14T01:41:08.656Z,71.60
2018-12-14T01:43:40.044Z,71.40
2018-12-14T01:46:21.076Z,71.40
2018-12-14T01:48:52.542Z,71.20
2018-12-14T01:51:37.055Z,71.20
2018-12-14T01:54:08.508Z,71.20
2018-12-14T01:56:39.986Z,71.90
2018-12-14T01:59:28.824Z,71.10
2018-12-14T02:02:00.193Z,71.00
2018-12-14T02:04:41.209Z,71.80
2018-12-14T02:07:12.744Z,71.00
2018-12-14T02:09:53.877Z,71.10
2018-12-14T02:12:25.472Z,71.00
2018-12-14T02:15:07.261Z,71.00
2018-12-14T02:17:38.889Z,71.00
2018-12-14T02:20:19.982Z,71.00
2018-12-14T02:22:51.597Z,71.00
2018-12-14T02:25:36.263Z,70.90
2018-12-14T02:28:07.928Z,71.00
2018-12-14T02:30:49.111Z,70.90
2018-12-14T02:33:20.575Z,71.30
2018-12-14T02:36:01.616Z,70.80
2018-12-14T02:38:33.128Z,70.90
2018-12-14T02:41:14.139Z,70.90
2018-12-14T02:43:46.067Z,70.80
2018-12-14T02:46:27.212Z,70.90
2018-12-14T02:48:58.734Z,70.80
2018-12-14T02:51:43.324Z,70.70
2018-12-14T02:54:14.805Z,70.70
2018-12-14T02:56:55.810Z,70.70
2018-12-14T02:59:27.423Z,70.80
2018-12-14T03:02:11.981Z,70.70
2018-12-14T03:04:44.573Z,70.80
2018-12-14T03:07:25.574Z,70.80
2018-12-14T03:09:57.128Z,70.70
2018-12-14T03:12:41.721Z,70.70
2018-12-14T03:15:13.556Z,70.80
2018-12-14T03:17:58.038Z,70.60
2018-12-14T03:20:29.561Z,70.80
2018-12-14T03:23:14.238Z,70.60
2018-12-14T03:25:45.789Z,70.80
2018-12-14T03:28:26.827Z,70.70
2018-12-14T03:30:58.353Z,70.60
2018-12-14T03:33:39.909Z,70.60
2018-12-14T03:36:11.361Z,70.50
2018-12-14T03:38:58.909Z,70.60
2018-12-14T03:41:30.305Z,70.60
2018-12-14T03:44:11.368Z,70.60
2018-12-14T03:46:42.779Z,70.60
2018-12-14T03:49:24.433Z,70.60
2018-12-14T03:51:55.831Z,70.50
2018-12-14T03:54:40.336Z,70.60
2018-12-14T03:57:13.168Z,70.50
2018-12-14T03:59:54.166Z,70.50
2018-12-14T04:02:25.630Z,70.50
2018-12-14T04:05:07.002Z,70.60
2018-12-14T04:07:38.563Z,70.60
2018-12-14T04:10:23.199Z,70.60
2018-12-14T04:12:54.734Z,70.50
2018-12-14T04:15:35.793Z,70.50
2018-12-14T04:18:07.286Z,70.50
2018-12-14T04:20:48.604Z,71.30
2018-12-14T04:23:20.016Z,70.40
2018-12-14T04:26:01.069Z,70.40
2018-12-14T04:28:32.569Z,70.30
2018-12-14T04:31:23.052Z,70.40
2018-12-14T04:33:54.611Z,70.30
2018-12-14T04:36:35.982Z,70.40
2018-12-14T04:39:18.993Z,70.30
2018-12-14T04:41:50.438Z,70.40
2018-12-14T04:44:31.447Z,70.30
2018-12-14T04:47:03.319Z,70.30
2018-12-14T04:49:44.821Z,70.20
2018-12-14T04:52:16.255Z,70.30
2018-12-14T04:55:12.389Z,70.20
2018-12-14T04:57:43.785Z,70.10
2018-12-14T05:00:24.809Z,70.20
2018-12-14T05:02:56.290Z,70.80
2018-12-14T05:05:40.848Z,70.10
2018-12-14T05:08:12.347Z,70.10
2018-12-14T05:10:56.931Z,70.20
2018-12-14T05:13:28.479Z,70.20
2018-12-14T05:16:10.190Z,70.10
2018-12-14T05:18:41.739Z,70.20
2018-12-14T05:21:22.804Z,70.90
2018-12-14T05:23:54.299Z,70.10
2018-12-14T05:26:35.823Z,70.30
2018-12-14T05:29:07.229Z,70.20
2018-12-14T05:44:48.740Z,70.10
2018-12-14T05:47:20.265Z,70.20
2018-12-14T05:50:01.454Z,70.10
2018-12-14T05:52:32.952Z,70.20
2018-12-14T05:55:13.964Z,70.20
2018-12-14T05:57:45.338Z,70.30
2018-12-14T06:00:29.891Z,70.40
2018-12-14T06:03:01.362Z,70.30
2018-12-14T06:05:46.013Z,70.30
2018-12-14T06:08:17.629Z,70.20
2018-12-14T06:11:06.350Z,70.10
2018-12-14T06:13:38.004Z,70.10
2018-12-14T06:16:22.797Z,70.10
2018-12-14T06:18:54.349Z,70.10
2018-12-14T06:21:41.944Z,70.00
2018-12-14T06:24:13.440Z,70.10
2018-12-14T06:26:58.034Z,70.10
2018-12-14T06:29:29.694Z,70.10
2018-12-14T06:32:10.754Z,70.10
2018-12-14T06:34:42.263Z,70.00
2018-12-14T06:37:35.743Z,70.00
2018-12-14T06:40:07.317Z,70.00
2018-12-14T06:42:48.412Z,70.80
2018-12-14T06:45:19.772Z,70.00
2018-12-14T06:48:00.752Z,70.10
2018-12-14T06:50:32.922Z,70.00
2018-12-14T06:53:30.145Z,70.00
2018-12-14T06:56:01.701Z,70.00
2018-12-14T06:58:42.814Z,69.90
2018-12-14T07:01:14.440Z,70.00
2018-12-14T07:03:56.026Z,70.00
2018-12-14T07:06:27.479Z,70.00
2018-12-14T07:09:10.563Z,69.90
2018-12-14T07:11:42.368Z,70.30
2018-12-14T07:14:23.428Z,70.10
2018-12-14T07:16:55.224Z,70.10
2018-12-14T07:19:39.863Z,70.00
2018-12-14T07:22:11.466Z,70.20
2018-12-14T07:24:59.074Z,70.30
2018-12-14T07:27:30.480Z,70.00
2018-12-14T07:30:11.576Z,69.80
2018-12-14T07:32:43.055Z,69.80
2018-12-14T07:35:24.127Z,69.80
2018-12-14T07:37:55.744Z,69.70
2018-12-14T07:40:36.837Z,69.70
2018-12-14T07:43:08.756Z,69.70
2018-12-14T07:45:49.750Z,69.60
2018-12-14T07:48:21.149Z,69.60
2018-12-14T07:51:05.702Z,69.60
2018-12-14T07:53:37.307Z,69.50
2018-12-14T07:56:18.910Z,69.50
2018-12-14T07:58:50.559Z,69.40
2018-12-14T08:01:31.684Z,69.30
2018-12-14T08:04:03.276Z,69.30
2018-12-14T08:06:48.970Z,69.30
2018-12-14T08:09:20.580Z,69.20
2018-12-14T08:12:08.255Z,69.10
2018-12-14T08:14:39.720Z,69.10
2018-12-14T08:17:20.712Z,69.10
2018-12-14T08:19:52.257Z,68.90
2018-12-14T08:22:36.901Z,68.90
2018-12-14T08:25:08.825Z,68.80
2018-12-14T08:27:49.784Z,68.80
2018-12-14T08:30:21.570Z,68.80
2018-12-14T08:33:02.667Z,68.80
2018-12-14T08:35:41.409Z,68.80
2018-12-14T08:38:26.141Z,68.60
2018-12-14T08:40:57.561Z,68.60
2018-12-14T08:43:42.106Z,68.60
2018-12-14T08:46:13.513Z,68.60
2018-12-14T08:48:54.567Z,68.50
2018-12-14T08:51:26.204Z,68.50
2018-12-14T08:54:10.675Z,68.40
2018-12-14T08:56:42.300Z,68.50
2018-12-14T08:59:23.458Z,68.30
2018-12-14T09:01:54.882Z,68.30
2018-12-14T09:04:36.064Z,68.20
2018-12-14T09:07:07.918Z,68.30
2018-12-14T09:09:52.558Z,68.30
2018-12-14T09:12:24.219Z,68.30
2018-12-14T09:15:05.928Z,68.30
2018-12-14T09:17:37.432Z,68.30
2018-12-14T09:20:21.960Z,68.20
2018-12-14T09:22:53.965Z,68.20
2018-12-14T09:25:41.678Z,68.20
2018-12-14T09:28:13.202Z,68.20
2018-12-14T09:30:54.613Z,68.00
2018-12-14T09:33:26.228Z,68.10
2018-12-14T09:36:08.103Z,68.00
2018-12-14T09:38:39.538Z,68.10
2018-12-14T09:41:34.564Z,68.10
2018-12-14T09:44:06.091Z,68.20
2018-12-14T09:46:59.783Z,68.00
2018-12-14T09:49:31.332Z,68.00
2018-12-14T09:52:25.127Z,68.00
2018-12-14T09:54:56.735Z,67.90
2018-12-14T09:57:41.305Z,67.80
2018-12-14T10:00:12.804Z,67.80
2018-12-14T10:03:09.390Z,67.80
2018-12-14T10:05:42.034Z,67.80
2018-12-14T10:08:23.325Z,67.80
2018-12-14T10:10:55.196Z,67.70
2018-12-14T10:13:40.086Z,67.80
2018-12-14T10:16:12.038Z,67.60
2018-12-14T10:18:57.230Z,67.50
2018-12-14T10:21:28.656Z,67.50
2018-12-14T10:24:13.218Z,67.50
2018-12-14T10:26:44.703Z,67.40
2018-12-14T10:29:25.767Z,67.50
2018-12-14T10:31:57.264Z,68.00
2018-12-14T10:34:38.751Z,67.30
2018-12-14T10:37:10.288Z,67.20
2018-12-14T10:39:51.352Z,67.00
2018-12-14T10:42:23.255Z,67.00
2018-12-14T10:45:11.118Z,67.20
2018-12-14T10:47:42.733Z,67.00
2018-12-14T10:50:23.849Z,67.20
2018-12-14T10:52:55.244Z,67.10
2018-12-14T10:55:41.919Z,67.00
2018-12-14T10:58:14.416Z,66.90
2018-12-14T11:01:01.057Z,66.80
2018-12-14T11:03:32.656Z,66.90
2018-12-14T11:06:13.877Z,66.80
2018-12-14T11:08:45.913Z,66.80
2018-12-14T11:11:27.012Z,66.70
2018-12-14T11:13:59.084Z,66.60
2018-12-14T11:16:40.171Z,66.60
2018-12-14T11:19:11.583Z,66.70
2018-12-14T11:21:43.239Z,66.60
2018-12-14T11:24:25.573Z,66.50
2018-12-14T11:26:57.519Z,66.40
2018-12-14T11:29:39.061Z,66.40
2018-12-14T11:32:10.828Z,66.50
2018-12-14T11:34:58.413Z,66.30
2018-12-14T11:37:32.668Z,66.10
2018-12-14T11:40:13.830Z,66.00
2018-12-14T11:42:45.487Z,66.00
2018-12-14T11:45:27.060Z,66.00
2018-12-14T11:47:58.676Z,65.90
2018-12-14T11:50:39.775Z,65.90
2018-12-14T11:55:59.027Z,65.80
2018-12-14T11:58:30.945Z,65.90
2018-12-14T12:01:15.583Z,66.00
2018-12-14T12:03:47.036Z,66.00
2018-12-14T12:06:31.955Z,66.00
2018-12-14T12:09:03.658Z,66.00
2018-12-14T12:11:48.286Z,66.10
2018-12-14T12:14:20.031Z,66.10
2018-12-14T12:17:01.123Z,66.10
2018-12-14T12:19:32.745Z,66.10
2018-12-14T12:22:13.867Z,66.10
2018-12-14T12:24:45.528Z,66.00
2018-12-14T12:27:26.636Z,66.20
2018-12-14T12:29:58.193Z,66.20
2018-12-14T12:32:48.851Z,66.10
2018-12-14T12:35:20.251Z,66.00
2018-12-14T12:38:01.401Z,66.10
2018-12-14T12:40:34.022Z,66.30
2018-12-14T12:43:18.680Z,66.10
2018-12-14T12:45:50.207Z,66.30
2018-12-14T12:48:31.303Z,66.20
2018-12-14T12:51:03.223Z,66.20
2018-12-14T12:53:48.172Z,66.00
2018-12-14T12:56:19.978Z,67.00
2018-12-14T12:59:01.095Z,66.10
2018-12-14T13:01:32.555Z,66.10
2018-12-14T13:04:13.667Z,66.00
2018-12-14T13:06:45.217Z,65.90
2018-12-14T13:09:29.950Z,65.90
2018-12-14T13:12:01.529Z,65.80
2018-12-14T13:14:42.672Z,65.80
2018-12-14T13:17:14.218Z,65.70
2018-12-14T13:19:55.978Z,65.80
2018-12-14T13:22:27.698Z,65.70
2018-12-14T13:25:08.853Z,65.80
2018-12-14T13:27:42.348Z,65.80
2018-12-14T13:30:26.867Z,65.60
2018-12-14T13:32:59.045Z,66.40
2018-12-14T13:35:40.479Z,65.80
2018-12-14T13:38:11.893Z,65.80
2018-12-14T13:40:53.025Z,65.60
2018-12-14T13:43:24.736Z,65.70
2018-12-14T13:46:12.391Z,65.80
2018-12-14T13:48:43.995Z,65.80
2018-12-14T13:51:31.746Z,65.80
2018-12-14T13:57:02.392Z,65.80
2018-12-14T13:59:33.881Z,65.80
2018-12-14T14:02:18.655Z,65.90
2018-12-14T14:04:50.374Z,66.00
2018-12-14T14:07:31.978Z,66.80
2018-12-14T14:10:03.881Z,66.00
2018-12-14T14:12:45.159Z,66.10
2018-12-14T14:15:20.817Z,66.10
2018-12-14T14:17:59.888Z,66.10
2018-12-14T14:20:31.977Z,66.10
2018-12-14T14:23:13.051Z,66.00
2018-12-14T14:25:45.901Z,66.10
2018-12-14T14:28:27.687Z,66.30
2018-12-14T14:30:59.944Z,66.20
2018-12-14T14:33:42.462Z,66.30
2018-12-14T14:36:20.717Z,66.30
2018-12-14T14:39:04.519Z,66.30
2018-12-14T14:41:37.835Z,66.50
2018-12-14T14:44:22.620Z,66.40
2018-12-14T14:46:54.381Z,66.50
2018-12-14T14:49:35.531Z,66.40
2018-12-14T14:52:07.279Z,66.60
2018-12-14T14:54:55.208Z,66.50
2018-12-14T14:57:27.488Z,66.60
2018-12-14T15:00:12.630Z,66.60
2018-12-14T15:02:44.522Z,66.50
2018-12-14T15:05:25.724Z,66.60
2018-12-14T15:07:57.278Z,66.50
2018-12-14T15:10:38.938Z,66.60
2018-12-14T15:13:10.749Z,66.60
2018-12-14T15:15:59.682Z,66.70
2018-12-14T15:18:31.335Z,66.70
2018-12-14T15:21:19.066Z,66.70
2018-12-14T15:23:50.718Z,66.80
2018-12-14T15:39:33.081Z,67.00
2018-12-14T15:42:04.871Z,67.00
2018-12-14T15:57:49.522Z,67.00
2018-12-14T16:00:21.168Z,67.20
2018-12-14T16:03:05.874Z,67.20
2018-12-14T16:05:37.435Z,67.20
2018-12-14T16:08:22.221Z,67.20
2018-12-14T16:10:54.085Z,67.20
2018-12-14T16:13:35.402Z,67.30
2018-12-14T16:16:07.551Z,67.20
2018-12-14T16:18:48.814Z,67.20
2018-12-14T16:21:20.473Z,67.20
2018-12-14T16:24:01.673Z,67.20
2018-12-14T16:26:33.210Z,67.30
2018-12-14T16:29:14.547Z,67.20
2018-12-14T16:31:46.470Z,67.20
2018-12-14T16:34:31.470Z,67.30
2018-12-14T16:37:03.915Z,67.20
2018-12-14T16:39:45.424Z,67.30
2018-12-14T16:42:18.040Z,67.30
2018-12-14T16:45:00.245Z,67.30
2018-12-14T16:47:33.279Z,67.30
2018-12-14T16:50:18.110Z,67.40
2018-12-14T16:52:50.530Z,67.40
2018-12-14T16:55:32.245Z,67.50
2018-12-14T16:58:04.733Z,67.50
2018-12-14T17:00:46.181Z,67.50
2018-12-14T17:03:18.701Z,67.50
2018-12-14T17:06:00.345Z,67.50
2018-12-14T17:08:32.741Z,67.70
2018-12-14T17:11:17.856Z,67.70
2018-12-14T17:13:50.023Z,67.70
2018-12-14T17:16:32.107Z,67.70
2018-12-14T17:19:04.272Z,67.70
2018-12-14T17:21:45.934Z,67.80
2018-12-14T17:24:18.169Z,67.70
2018-12-14T17:27:00.056Z,67.80
2018-12-14T17:29:31.933Z,68.00
2018-12-14T17:32:13.530Z,68.00
2018-12-14T17:34:45.659Z,67.80
2018-12-14T17:37:29.450Z,67.90
2018-12-14T17:40:03.420Z,67.90
2018-12-14T17:55:47.533Z,68.10
2018-12-14T17:58:19.975Z,68.10
2018-12-14T18:01:05.367Z,68.20
2018-12-14T18:03:38.119Z,68.30
2018-12-14T18:06:20.236Z,68.30
2018-12-14T18:08:51.932Z,68.50
2018-12-14T18:11:37.524Z,68.40
2018-12-14T18:14:09.522Z,68.40
2018-12-14T18:16:41.948Z,68.40
2018-12-14T18:19:23.490Z,68.40
2018-12-14T18:21:56.514Z,68.50
2018-12-14T18:24:37.980Z,68.50
2018-12-14T18:27:10.259Z,68.50
2018-12-14T18:29:55.460Z,68.50
2018-12-14T18:32:27.366Z,68.60
2018-12-14T18:35:09.240Z,68.60
2018-12-14T18:37:41.092Z,68.60
2018-12-14T18:40:26.347Z,68.60
2018-12-14T18:42:58.560Z,68.60
2018-12-14T18:45:40.389Z,68.60
2018-12-14T18:48:12.038Z,68.60
2018-12-14T19:03:58.421Z,68.60
2018-12-14T19:06:30.185Z,68.70
2018-12-14T19:09:15.463Z,68.70
2018-12-14T19:11:47.641Z,68.80
2018-12-14T19:14:32.487Z,69.60
2018-12-14T19:17:04.479Z,68.90
2018-12-14T19:19:49.289Z,68.90
2018-12-14T19:22:21.276Z,68.90
2018-12-14T19:25:06.890Z,68.90
2018-12-14T19:27:39.101Z,68.90
2018-12-14T19:30:20.610Z,68.80
2018-12-14T19:32:52.642Z,69.90
2018-12-14T19:35:34.332Z,68.90
2018-12-14T19:38:06.540Z,68.90
2018-12-14T19:40:48.284Z,68.90
2018-12-14T19:43:19.742Z,68.90
2018-12-14T19:46:06.325Z,68.90
2018-12-14T19:48:35.740Z,69.00
2018-12-14T19:51:17.824Z,68.90
2018-12-14T19:53:49.446Z,68.90
2018-12-14T19:56:34.341Z,68.80
2018-12-14T19:59:05.965Z,68.90
2018-12-14T20:01:51.612Z,68.90
2018-12-14T20:04:23.724Z,68.90
2018-12-14T20:20:12.229Z,68.80
2018-12-14T20:22:44.653Z,68.90
2018-12-14T20:38:31.381Z,69.00
2018-12-14T20:41:03.163Z,69.00
2018-12-14T20:43:47.785Z,69.00
2018-12-14T20:46:24.920Z,69.10
2018-12-14T20:49:10.578Z,69.20
2018-12-14T20:51:47.215Z,69.30
2018-12-14T21:07:29.069Z,69.20
2018-12-14T21:10:05.838Z,69.10
2018-12-14T21:12:50.882Z,69.20
2018-12-14T21:15:35.904Z,69.20
2018-12-14T21:31:43.461Z,69.10
2018-12-14T21:34:17.221Z,69.20
2018-12-14T21:36:58.791Z,69.30
2018-12-14T21:39:30.918Z,69.30
2018-12-14T21:42:12.606Z,69.30
2018-12-14T21:44:55.431Z,70.00
2018-12-14T22:00:52.414Z,69.30
2018-12-14T22:03:32.234Z,69.30
2018-12-14T22:06:19.715Z,70.10
2018-12-14T22:08:57.239Z,69.30
2018-12-14T22:11:40.398Z,69.30
2018-12-14T22:14:27.268Z,69.40
2018-12-14T22:16:58.995Z,69.40
2018-12-14T22:19:44.299Z,69.40
2018-12-14T22:22:23.242Z,68.80
2018-12-14T22:25:10.624Z,69.40
2018-12-14T22:27:52.265Z,69.40
2018-12-14T22:30:42.371Z,70.00
2018-12-14T22:33:17.176Z,69.50
2018-12-14T22:35:59.085Z,69.60
2018-12-14T22:38:31.021Z,69.60
2018-12-14T22:41:31.714Z,69.60
2018-12-14T22:44:13.176Z,69.60
2018-12-14T22:47:11.156Z,69.60
2018-12-14T22:49:43.161Z,70.50
2018-12-14T22:52:25.471Z,69.60
2018-12-14T22:54:57.281Z,69.60
2018-12-14T22:57:45.323Z,69.50
2018-12-14T23:00:20.146Z,69.60
2018-12-14T23:03:11.933Z,69.60
2018-12-14T23:05:44.007Z,69.50
2018-12-14T23:08:38.263Z,69.50
2018-12-14T23:11:10.211Z,69.50
2018-12-14T23:14:07.855Z,69.50
2018-12-14T23:16:40.030Z,69.50
2018-12-14T23:19:28.376Z,69.50
2018-12-14T23:22:00.614Z,69.50
2018-12-14T23:24:54.649Z,69.50
2018-12-14T23:27:27.141Z,69.50
2018-12-14T23:30:12.388Z,69.50
2018-12-14T23:32:46.412Z,69.50
2018-12-14T23:35:44.955Z,69.50
2018-12-14T23:38:21.709Z,69.50
2018-12-14T23:41:09.615Z,69.50
2018-12-14T23:43:42.070Z,69.50
2018-12-14T23:46:24.215Z,69.50
2018-12-14T23:48:56.237Z,70.20
2018-12-14T23:51:37.309Z,69.60
2018-12-14T23:54:09.696Z,69.60
2018-12-14T23:56:51.230Z,69.60
2018-12-14T23:59:23.695Z,69.60
